Time;durP1;ratioP1;P1;durP2;ratioP2;P2;SDS_P1;SDS_P2;PMS_P1;PMS_P2;Temp;Humidity;BMP_temperature;BMP_pressure;BME280_temperature;BME280_humidity;BME280_pressure;Samples;Min_cycle;Max_cycle;Signal;HPM_P1;HPM_P2
2021/10/23 00:01:37;;;;;;;4.45;0.70;;;;;;;5.00;100.00;101808.38;6273448;28;20053;-79
2021/10/23 00:04:39;;;;;;;0.55;0.40;;;;;;;5.03;100.00;101814.38;6273673;28;20052;-79
2021/10/23 00:07:40;;;;;;;1.05;0.45;;;;;;;5.02;100.00;101809.19;6273833;28;20041;-79
2021/10/23 00:10:43;;;;;;;4.93;0.50;;;;;;;5.04;100.00;101823.94;6274009;28;20053;-78
2021/10/23 00:13:44;;;;;;;0.98;0.70;;;;;;;5.03;100.00;101818.72;6273350;28;20056;-79
2021/10/23 00:16:46;;;;;;;2.47;0.77;;;;;;;5.14;100.00;101832.50;6272678;28;20052;-78
2021/10/23 00:19:47;;;;;;;6.35;1.17;;;;;;;5.29;100.00;101836.63;6272399;28;20447;-78
2021/10/23 00:22:49;;;;;;;0.30;0.30;;;;;;;5.22;100.00;101827.16;6272645;28;20045;-78
2021/10/23 00:25:51;;;;;;;0.45;0.40;;;;;;;5.08;100.00;101846.44;6272102;28;20060;-78
2021/10/23 00:28:53;;;;;;;7.22;0.90;;;;;;;5.11;100.00;101839.47;6283335;28;20419;-78
2021/10/23 00:31:54;;;;;;;2.30;0.30;;;;;;;5.06;100.00;101845.59;6296298;28;20055;-78
2021/10/23 00:34:56;;;;;;;4.60;0.75;;;;;;;5.00;100.00;101847.44;6296629;28;20055;-79
2021/10/23 00:37:58;;;;;;;0.43;0.32;;;;;;;5.02;100.00;101846.53;6296990;28;20048;-78
2021/10/23 00:41:00;;;;;;;6.60;0.65;;;;;;;5.02;100.00;101854.34;6296789;28;20052;-78
2021/10/23 00:44:01;;;;;;;3.15;0.50;;;;;;;4.97;100.00;101856.13;6296837;28;20056;-78
2021/10/23 00:47:05;;;;;;;0.00;0.00;;;;;;;5.00;100.00;101860.47;6297124;28;20040;-78
2021/10/23 00:50:07;;;;;;;5.88;0.65;;;;;;;4.92;100.00;101851.88;6297010;28;20450;-78
2021/10/23 00:53:09;;;;;;;0.30;0.30;;;;;;;4.91;100.00;101858.84;6297018;28;20048;-78
2021/10/23 00:56:11;;;;;;;0.28;0.22;;;;;;;4.93;100.00;101872.69;6296731;28;20049;-79
2021/10/23 00:59:13;;;;;;;4.57;0.40;;;;;;;4.88;100.00;101869.28;6296066;28;20439;-79
2021/10/23 01:02:14;;;;;;;0.90;0.35;;;;;;;4.97;100.00;101882.19;6297253;28;20052;-79
2021/10/23 01:05:16;;;;;;;5.63;0.55;;;;;;;5.08;100.00;101876.84;6297065;28;20044;-79
2021/10/23 01:08:17;;;;;;;4.10;0.38;;;;;;;5.09;100.00;101876.84;6279864;28;20079;-78
2021/10/23 01:11:20;;;;;;;2.67;0.35;;;;;;;4.92;100.00;101884.00;6272441;28;20052;-78
2021/10/23 01:14:24;;;;;;;3.72;0.90;;;;;;;4.89;100.00;101877.94;6279119;28;20499;-79
2021/10/23 01:17:25;;;;;;;1.80;0.60;;;;;;;4.96;100.00;101885.69;6297246;28;20125;-78
2021/10/23 01:20:29;;;;;;;2.55;0.35;;;;;;;4.91;100.00;101887.47;6297083;28;20063;-79
2021/10/23 01:23:30;;;;;;;1.48;0.30;;;;;;;5.02;100.00;101889.94;6296842;28;20045;-78
2021/10/23 01:26:32;;;;;;;0.98;0.40;;;;;;;4.98;100.00;101889.13;6296863;28;20415;-78
2021/10/23 01:29:33;;;;;;;0.50;0.20;;;;;;;4.95;100.00;101901.31;6297430;28;20052;-79
2021/10/23 01:32:35;;;;;;;0.63;0.32;;;;;;;4.92;100.00;101897.00;6296970;28;20052;-79
2021/10/23 01:35:39;;;;;;;8.65;0.47;;;;;;;4.92;100.00;101898.75;6295807;28;20044;-79
2021/10/23 01:38:41;;;;;;;1.95;0.75;;;;;;;4.91;100.00;101900.50;6296712;28;20095;-79
2021/10/23 01:41:42;;;;;;;1.48;0.45;;;;;;;5.00;100.00;101905.59;6297293;28;20049;-79
2021/10/23 01:44:44;;;;;;;2.90;0.32;;;;;;;4.93;100.00;101905.69;6296899;28;20601;-79
2021/10/23 01:47:45;;;;;;;1.45;0.20;;;;;;;4.97;100.00;101910.84;6296953;28;20059;-79
2021/10/23 01:50:48;;;;;;;1.90;0.45;;;;;;;4.87;100.00;101919.66;6297042;28;20075;-79
2021/10/23 01:53:49;;;;;;;1.73;0.68;;;;;;;4.88;100.00;101920.50;6296625;28;20052;-79
2021/10/23 01:56:51;;;;;;;5.93;0.95;;;;;;;4.82;100.00;101909.28;6296941;28;20052;-79
2021/10/23 01:59:52;;;;;;;0.10;0.08;;;;;;;4.89;100.00;101912.66;6296163;28;20060;-79
2021/10/23 02:02:54;;;;;;;4.97;0.63;;;;;;;4.78;100.00;101914.53;6280834;28;20053;-79
2021/10/23 02:05:57;;;;;;;0.93;0.17;;;;;;;4.88;100.00;101923.09;6272172;28;20049;-79
2021/10/23 02:08:58;;;;;;;1.00;0.30;;;;;;;4.87;100.00;101926.59;6272008;28;20423;-79
2021/10/23 02:11:59;;;;;;;0.50;0.25;;;;;;;4.86;100.00;101924.84;6272226;28;20511;-79
2021/10/23 02:15:01;;;;;;;2.92;0.38;;;;;;;4.76;100.00;101929.28;6271408;28;20059;-79
2021/10/23 02:18:02;;;;;;;1.00;0.75;;;;;;;4.77;100.00;101936.25;6271971;28;20048;-79
2021/10/23 02:21:07;;;;;;;0.43;0.40;;;;;;;4.78;100.00;101937.97;6273104;28;20060;-80
2021/10/23 02:24:08;;;;;;;1.98;0.50;;;;;;;4.71;100.00;101944.09;6276170;28;20053;-79
2021/10/23 02:27:09;;;;;;;0.38;0.20;;;;;;;4.71;100.00;101942.38;6275961;28;20064;-79
2021/10/23 02:30:12;;;;;;;0.32;0.30;;;;;;;4.74;100.00;101950.16;6280734;28;20048;-79
2021/10/23 02:33:14;;;;;;;2.35;0.60;;;;;;;4.77;100.00;101968.38;6301636;28;20053;-79
2021/10/23 02:36:17;;;;;;;0.70;0.32;;;;;;;4.69;100.00;101958.91;6300818;28;20040;-79
2021/10/23 02:39:18;;;;;;;0.55;0.43;;;;;;;4.66;100.00;101956.31;6301252;28;20056;-78
2021/10/23 02:42:19;;;;;;;0.40;0.30;;;;;;;4.66;100.00;101967.59;6301061;28;20045;-77
2021/10/23 02:45:21;;;;;;;0.75;0.32;;;;;;;4.69;100.00;101969.31;6300551;28;20492;-79
2021/10/23 02:48:22;;;;;;;1.65;0.35;;;;;;;4.64;100.00;101971.97;6300984;28;20048;-79
2021/10/23 02:51:25;;;;;;;0.55;0.35;;;;;;;4.59;100.00;101971.13;6300835;28;20052;-79
2021/10/23 02:54:26;;;;;;;3.80;0.38;;;;;;;4.60;100.00;101969.41;6299994;28;20055;-79
2021/10/23 02:57:28;;;;;;;0.57;0.20;;;;;;;4.66;100.00;101974.53;6300806;28;20052;-79
2021/10/23 03:00:29;;;;;;;0.22;0.20;;;;;;;4.65;100.00;101978.88;6298323;28;20040;-79
2021/10/23 03:03:31;;;;;;;5.28;0.40;;;;;;;4.70;100.00;101989.25;6275938;28;20052;-79
2021/10/23 03:06:34;;;;;;;1.23;0.70;;;;;;;4.64;100.00;102002.34;6276590;28;20045;-79
2021/10/23 03:09:35;;;;;;;2.38;0.63;;;;;;;4.56;100.00;101979.81;6284051;28;20067;-79
2021/10/23 03:12:36;;;;;;;0.85;0.32;;;;;;;4.55;100.00;101975.50;6300330;28;20045;-79
2021/10/23 03:15:38;;;;;;;1.85;0.10;;;;;;;4.58;100.00;101991.06;6299902;28;20383;-79
2021/10/23 03:18:39;;;;;;;2.15;0.73;;;;;;;4.54;100.00;101980.69;6275553;28;20420;-79
2021/10/23 03:21:42;;;;;;;0.75;0.75;;;;;;;4.54;100.00;101975.50;6276169;28;20067;-79
2021/10/23 03:24:43;;;;;;;3.70;0.40;;;;;;;4.64;100.00;101981.50;6275470;28;20045;-79
2021/10/23 03:27:45;;;;;;;0.57;0.28;;;;;;;4.57;100.00;101975.47;6275734;28;20124;-79
2021/10/23 03:30:46;;;;;;;3.38;1.58;;;;;;;4.54;100.00;101972.88;6275267;28;20052;-78
2021/10/23 03:33:47;;;;;;;0.55;0.25;;;;;;;4.56;100.00;101971.16;6274810;28;20060;-79
2021/10/23 03:36:50;;;;;;;0.20;0.20;;;;;;;4.52;100.00;101979.88;6281155;28;20484;-78
2021/10/23 03:39:52;;;;;;;2.38;0.43;;;;;;;4.53;100.00;101973.78;6300204;28;20048;-79
2021/10/23 03:42:53;;;;;;;0.32;0.30;;;;;;;4.56;100.00;101986.78;6299660;28;20052;-78
2021/10/23 03:45:54;;;;;;;0.73;0.60;;;;;;;4.67;100.00;101991.88;6299431;28;20048;-79
2021/10/23 03:48:56;;;;;;;3.75;0.22;;;;;;;4.68;100.00;102004.00;6299730;28;20052;-79
2021/10/23 03:51:59;;;;;;;0.40;0.25;;;;;;;4.73;100.00;101997.06;6299714;28;20052;-79
2021/10/23 03:55:00;;;;;;;2.55;0.40;;;;;;;4.77;100.00;101989.19;6299382;28;20183;-79
2021/10/23 03:58:02;;;;;;;1.23;0.40;;;;;;;4.82;100.00;101986.53;6299469;28;20048;-79
2021/10/23 04:01:03;;;;;;;0.80;0.43;;;;;;;4.80;100.00;101983.94;6298709;28;20056;-79
2021/10/23 04:04:05;;;;;;;0.30;0.22;;;;;;;4.76;100.00;101974.44;6297743;28;20060;-79
2021/10/23 04:07:07;;;;;;;0.65;0.13;;;;;;;4.81;100.00;101985.69;6298666;28;20048;-79
2021/10/23 04:10:09;;;;;;;2.47;0.73;;;;;;;4.88;100.00;101996.91;6299164;28;20049;-79
2021/10/23 04:13:10;;;;;;;1.80;0.63;;;;;;;4.91;100.00;101994.28;6299505;28;20052;-79
2021/10/23 04:16:11;;;;;;;0.22;0.10;;;;;;;4.95;100.00;101993.38;6298665;28;20392;-79
2021/10/23 04:19:13;;;;;;;1.20;0.52;;;;;;;5.01;100.00;102008.06;6299251;28;20059;-79
2021/10/23 04:22:16;;;;;;;0.80;0.60;;;;;;;5.00;100.00;102025.44;6299406;28;20495;-79
2021/10/23 04:25:17;;;;;;;0.30;0.30;;;;;;;4.97;100.00;102025.47;6305748;28;20518;-80
2021/10/23 04:28:19;;;;;;;0.60;0.40;;;;;;;5.05;100.00;102026.25;6307169;28;20045;-79
2021/10/23 04:31:20;;;;;;;4.55;0.75;;;;;;;5.09;100.00;102027.09;6318445;28;20047;-79
2021/10/23 04:34:22;;;;;;;1.75;0.77;;;;;;;5.06;100.00;102032.31;6301094;28;20055;-79
2021/10/23 04:37:24;;;;;;;1.77;0.65;;;;;;;5.02;100.00;102022.81;6315140;28;20177;-79
2021/10/23 04:40:26;;;;;;;0.52;0.30;;;;;;;5.01;100.00;102024.56;6323415;28;20058;-79
2021/10/23 04:43:27;;;;;;;3.20;0.55;;;;;;;5.03;100.00;102035.81;6322710;28;20430;-79
2021/10/23 04:46:28;;;;;;;1.45;0.40;;;;;;;5.00;100.00;102028.03;6311111;28;20055;-79
2021/10/23 04:49:30;;;;;;;3.30;0.43;;;;;;;5.04;100.00;102029.75;6319489;28;20059;-79
2021/10/23 04:52:32;;;;;;;1.23;0.57;;;;;;;5.04;100.00;102047.09;6322931;28;20043;-80
2021/10/23 04:55:34;;;;;;;5.18;1.35;;;;;;;4.98;100.00;102039.34;6322765;28;20055;-79
2021/10/23 04:58:37;;;;;;;0.75;0.47;;;;;;;5.01;100.00;102048.00;6323299;28;20048;-79
2021/10/23 05:01:38;;;;;;;5.05;0.70;;;;;;;4.92;100.00;102055.91;6316208;28;20138;-79
2021/10/23 05:04:40;;;;;;;1.52;0.70;;;;;;;4.87;100.00;102039.44;6305688;28;20052;-79
2021/10/23 05:07:43;;;;;;;0.63;0.47;;;;;;;4.89;100.00;102047.25;6297973;28;20045;-79
2021/10/23 05:10:44;;;;;;;1.63;0.63;;;;;;;4.82;100.00;102042.09;6298178;28;20438;-79
2021/10/23 05:13:45;;;;;;;4.95;0.30;;;;;;;4.81;100.00;102042.09;6297177;28;20056;-80
2021/10/23 05:16:47;;;;;;;1.70;0.82;;;;;;;4.82;100.00;102041.25;6297853;28;20522;-79
2021/10/23 05:19:48;;;;;;;1.83;0.50;;;;;;;4.90;100.00;102052.44;6297437;28;20048;-79
2021/10/23 05:22:51;;;;;;;0.43;0.32;;;;;;;4.91;100.00;102056.78;6297802;28;20048;-79
2021/10/23 05:25:53;;;;;;;3.13;0.35;;;;;;;4.90;100.00;102064.59;6296549;28;20419;-79
2021/10/23 05:28:54;;;;;;;1.48;0.43;;;;;;;4.98;100.00;102068.00;6284094;28;20051;-79
2021/10/23 05:31:55;;;;;;;7.43;0.77;;;;;;;4.97;100.00;102061.06;6283017;28;20056;-79
2021/10/23 05:34:57;;;;;;;2.08;0.63;;;;;;;5.04;100.00;102057.50;6283184;28;20044;-79
2021/10/23 05:37:59;;;;;;;1.65;0.60;;;;;;;5.08;100.00;102067.88;6283145;28;20048;-79
2021/10/23 05:41:01;;;;;;;0.20;0.20;;;;;;;5.18;100.00;102067.81;6282772;28;20406;-79
2021/10/23 05:44:02;;;;;;;1.55;0.35;;;;;;;5.16;100.00;102067.81;6271834;28;20053;-79
2021/10/23 05:47:04;;;;;;;2.85;0.35;;;;;;;5.18;100.00;102067.81;6272117;28;20108;-79
2021/10/23 05:50:08;;;;;;;0.63;0.40;;;;;;;5.26;100.00;102072.06;6272638;28;20056;-78
2021/10/23 05:53:10;;;;;;;4.80;0.68;;;;;;;5.28;100.00;102079.88;6272669;28;20059;-79
2021/10/23 05:56:11;;;;;;;0.28;0.20;;;;;;;5.26;100.00;102076.41;6275116;28;20060;-79
2021/10/23 05:59:14;;;;;;;0.47;0.25;;;;;;;5.28;100.00;102085.09;6277936;28;20045;-78
2021/10/23 06:02:26;;;;;;;2.95;0.35;;;;;;;5.33;100.00;102092.00;6286705;28;20053;-79
2021/10/23 06:05:27;;;;;;;1.80;0.28;;;;;;;5.24;100.00;102096.44;6305085;28;20076;-79
2021/10/23 06:08:30;;;;;;;0.63;0.32;;;;;;;5.23;100.00;102087.75;6305870;28;20425;-79
2021/10/23 06:11:31;;;;;;;2.22;0.63;;;;;;;5.31;100.00;102101.56;6305370;28;20407;-79
2021/10/23 06:14:33;;;;;;;1.80;0.38;;;;;;;5.35;100.00;102094.56;6305488;28;20048;-79
2021/10/23 06:17:34;;;;;;;0.95;0.30;;;;;;;5.30;100.00;102106.78;6304533;28;20040;-78
2021/10/23 06:20:35;;;;;;;4.60;0.50;;;;;;;5.26;100.00;102102.47;6304635;28;20063;-78
2021/10/23 06:23:38;;;;;;;1.75;0.75;;;;;;;5.21;100.00;102106.88;6304678;28;20061;-78
2021/10/23 06:26:39;;;;;;;1.13;0.50;;;;;;;5.26;100.00;102112.91;6316301;28;20514;-78
2021/10/23 06:29:41;;;;;;;0.40;0.28;;;;;;;5.23;100.00;102118.16;6314108;28;20052;-78
2021/10/23 06:32:47;;;;;;;2.03;0.50;;;;;;;5.14;100.00;102124.31;6313042;28;20047;-78
2021/10/23 06:35:48;;;;;;;1.00;0.32;;;;;;;5.17;100.00;102128.63;6321157;28;20044;-78
2021/10/23 06:38:51;;;;;;;3.30;1.88;;;;;;;5.12;100.00;102133.88;6322607;28;20059;-78
2021/10/23 06:41:52;;;;;;;0.40;0.35;;;;;;;5.15;100.00;102152.09;6330445;28;20511;-78
2021/10/23 06:44:54;;;;;;;4.22;0.50;;;;;;;5.10;100.00;102151.28;6330198;28;20138;-78
2021/10/23 06:47:56;;;;;;;0.88;0.50;;;;;;;5.13;100.00;102153.84;6328368;28;20467;-78
2021/10/23 06:50:58;;;;;;;0.95;0.68;;;;;;;5.18;100.00;102156.41;6310993;28;20498;-78
2021/10/23 06:54:01;;;;;;;0.93;0.35;;;;;;;5.20;100.00;102162.47;6326120;28;20486;-78
2021/10/23 06:57:03;;;;;;;0.73;0.40;;;;;;;5.19;100.00;102171.19;6289716;28;20041;-78
2021/10/23 07:00:06;;;;;;;2.08;0.80;;;;;;;5.21;100.00;102177.22;6279080;28;20049;-78
2021/10/23 07:03:08;;;;;;;1.30;0.40;;;;;;;5.24;100.00;102182.44;6303371;28;20422;-78
2021/10/23 07:06:10;;;;;;;0.65;0.40;;;;;;;5.30;100.00;102185.84;6318412;28;20063;-78
2021/10/23 07:09:13;;;;;;;2.33;0.60;;;;;;;5.39;100.00;102195.31;6318738;28;20488;-78
2021/10/23 07:12:14;;;;;;;1.50;0.22;;;;;;;5.47;100.00;102196.13;6287246;28;20468;-78
2021/10/23 07:15:16;;;;;;;0.63;0.50;;;;;;;5.56;100.00;102209.09;6299079;28;20514;-78
2021/10/23 07:18:17;;;;;;;1.95;0.80;;;;;;;5.69;100.00;102216.81;6300394;28;20044;-78
2021/10/23 07:21:18;;;;;;;2.47;0.45;;;;;;;5.79;100.00;102223.66;6301008;28;20045;-78
2021/10/23 07:24:22;;;;;;;0.75;0.50;;;;;;;5.84;100.00;102225.31;6300538;28;20067;-78
2021/10/23 07:27:23;;;;;;;0.77;0.40;;;;;;;5.76;100.00;102239.31;6301408;28;20423;-78
2021/10/23 07:30:25;;;;;;;1.95;0.55;;;;;;;5.78;100.00;102245.41;6302121;28;20055;-79
2021/10/23 07:33:26;;;;;;;1.08;0.70;;;;;;;5.76;100.00;102247.16;6283562;28;20053;-78
2021/10/23 07:36:29;;;;;;;2.17;1.23;;;;;;;5.77;100.00;102264.56;6275654;28;20053;-78
2021/10/23 07:39:32;;;;;;;1.15;0.65;;;;;;;5.75;100.00;102258.47;6276482;28;20053;-78
2021/10/23 07:42:35;;;;;;;4.70;0.68;;;;;;;5.74;100.00;102270.66;6275933;28;20048;-78
2021/10/23 07:45:36;;;;;;;4.70;0.60;;;;;;;5.74;100.00;102265.44;6275706;28;20053;-78
2021/10/23 07:48:38;;;;;;;1.58;0.45;;;;;;;5.71;100.00;102272.41;6277020;28;20108;-78
2021/10/23 07:51:40;;;;;;;6.28;1.15;;;;;;;5.74;100.00;102278.47;6277395;28;20049;-78
2021/10/23 07:54:43;;;;;;;0.82;0.40;;;;;;;5.72;100.00;102280.25;6276822;28;20053;-78
2021/10/23 07:57:44;;;;;;;1.55;0.28;;;;;;;5.80;100.00;102282.75;6277465;28;20052;-79
2021/10/23 08:00:46;;;;;;;0.70;0.52;;;;;;;5.81;100.00;102292.31;6277313;28;20056;-78
2021/10/23 08:03:47;;;;;;;3.53;0.93;;;;;;;5.79;100.00;102297.56;6291301;28;20055;-78
2021/10/23 08:06:48;;;;;;;1.50;0.60;;;;;;;5.84;100.00;102300.97;6276269;28;20049;-78
2021/10/23 08:09:53;;;;;;;2.40;0.63;;;;;;;5.90;100.00;102301.81;6276180;28;20389;-78
2021/10/23 08:12:55;;;;;;;3.22;0.38;;;;;;;5.96;100.00;102299.19;6275521;28;20053;-78
2021/10/23 08:15:58;;;;;;;2.90;0.98;;;;;;;6.05;100.00;102307.81;6275163;28;20055;-76
2021/10/23 08:18:59;;;;;;;1.77;0.40;;;;;;;6.13;100.00;102306.84;6272768;28;20053;-78
2021/10/23 08:22:00;;;;;;;1.65;0.63;;;;;;;6.31;100.00;102310.16;6273859;28;20060;-78
2021/10/23 08:25:05;;;;;;;7.70;0.68;;;;;;;6.34;100.00;102320.53;6273901;28;20049;-78
2021/10/23 08:28:07;;;;;;;1.48;0.70;;;;;;;6.41;100.00;102313.53;6273912;28;20076;-78
2021/10/23 08:31:08;;;;;;;0.30;0.30;;;;;;;6.76;100.00;102323.56;6274287;28;20052;-78
2021/10/23 08:34:10;;;;;;;0.65;0.25;;;;;;;6.88;100.00;102337.38;6297738;28;20055;-79
2021/10/23 08:37:11;;;;;;;1.63;0.57;;;;;;;6.84;100.00;102346.97;6298062;28;20051;-79
2021/10/23 08:40:15;;;;;;;0.30;0.30;;;;;;;6.94;100.00;102339.88;6297782;28;20044;-79
2021/10/23 08:43:16;;;;;;;5.72;0.68;;;;;;;7.08;100.00;102330.13;6297742;28;20083;-78
2021/10/23 08:46:21;;;;;;;1.73;0.63;;;;;;;7.01;100.00;102344.16;6297653;28;20048;-78
2021/10/23 08:49:23;;;;;;;6.47;0.68;;;;;;;7.00;100.00;102343.31;6297851;28;20040;-79
2021/10/23 08:52:27;;;;;;;0.65;0.47;;;;;;;7.01;100.00;102349.41;6298228;28;20052;-80
2021/10/23 08:55:30;;;;;;;3.05;0.88;;;;;;;7.15;100.00;102342.22;6298299;28;20059;-79
2021/10/23 08:58:32;;;;;;;1.45;0.30;;;;;;;7.23;100.00;102356.06;6298314;28;20059;-80
2021/10/23 09:01:33;;;;;;;0.88;0.50;;;;;;;7.21;100.00;102359.59;6288433;28;20059;-79
2021/10/23 09:04:34;;;;;;;4.78;0.95;;;;;;;7.33;100.00;102360.28;6273438;28;20499;-79
2021/10/23 09:07:42;;;;;;;2.80;0.60;;;;;;;7.61;100.00;102362.50;6297030;28;20044;-79
2021/10/23 09:10:48;;;;;;;0.43;0.20;;;;;;;7.65;100.00;102364.19;6298039;28;20514;-80
2021/10/23 09:13:50;;;;;;;4.32;1.33;;;;;;;7.70;100.00;102375.44;6297242;28;20053;-79
2021/10/23 09:17:06;;;;;;;1.17;0.30;;;;;;;7.76;100.00;102375.34;6285300;28;20045;-80
2021/10/23 09:20:10;;;;;;;1.08;0.50;;;;;;;7.80;100.00;102381.41;6284307;28;20049;-79
2021/10/23 09:23:16;;;;;;;2.47;0.70;;;;;;;7.82;100.00;102380.50;6283469;28;20045;-79
2021/10/23 09:26:34;;;;;;;3.38;0.70;;;;;;;7.88;100.00;102387.38;6274305;28;20056;-80
2021/10/23 09:29:36;;;;;;;0.60;0.50;;;;;;;7.99;100.00;102388.06;6274748;28;20048;-79
2021/10/23 09:32:37;;;;;;;0.28;0.28;;;;;;;8.04;100.00;102388.88;6294186;28;20053;-79
2021/10/23 09:35:40;;;;;;;3.85;0.30;;;;;;;8.41;100.00;102390.91;6291257;28;20048;-79
2021/10/23 09:38:42;;;;;;;0.63;0.45;;;;;;;8.52;100.00;102395.94;6292755;28;20045;-81
2021/10/23 09:42:03;;;;;;;0.40;0.20;;;;;;;8.69;100.00;102388.63;6302326;28;20055;-79
2021/10/23 09:45:06;;;;;;;3.75;0.75;;;;;;;8.95;100.00;102389.84;6305901;28;20420;-80
2021/10/23 09:48:09;;;;;;;2.08;0.40;;;;;;;8.89;100.00;102390.84;6305187;28;20048;-81
2021/10/23 09:51:19;;;;;;;6.40;0.60;;;;;;;8.92;99.65;102409.16;6304004;28;20051;-80
2021/10/23 09:54:21;;;;;;;2.95;1.25;;;;;;;8.88;100.00;102412.72;6301699;28;20404;-80
2021/10/23 09:57:30;;;;;;;0.40;0.30;;;;;;;8.89;100.00;102403.97;6301381;28;20519;-76
2021/10/23 10:00:32;;;;;;;0.50;0.22;;;;;;;8.76;100.00;102410.31;6297058;28;20045;-79
2021/10/23 10:03:34;;;;;;;0.80;0.50;;;;;;;8.84;100.00;102404.03;6287709;28;20049;-80
2021/10/23 10:06:38;;;;;;;2.97;0.57;;;;;;;8.83;100.00;102415.44;6299733;28;20426;-79
2021/10/23 10:09:41;;;;;;;1.17;0.32;;;;;;;8.92;100.00;102417.00;6301916;28;20059;-75
2021/10/23 10:12:44;;;;;;;4.75;0.40;;;;;;;9.12;100.00;102412.22;6302685;28;20056;-79
2021/10/23 10:15:47;;;;;;;0.60;0.40;;;;;;;9.33;96.79;102413.53;6302201;28;20044;-79
2021/10/23 10:18:48;;;;;;;1.58;0.65;;;;;;;9.51;95.87;102409.66;6302273;28;20045;-79
2021/10/23 10:21:52;;;;;;;1.88;0.55;;;;;;;9.40;95.56;102423.03;6304876;28;20060;-79
2021/10/23 10:25:16;;;;;;;0.30;0.30;;;;;;;9.39;96.20;102426.53;6306325;28;20051;-79
2021/10/23 10:28:19;;;;;;;0.38;0.30;;;;;;;9.27;97.34;102425.94;6313351;28;20137;-79
2021/10/23 10:31:43;;;;;;;2.83;0.52;;;;;;;9.27;97.10;102425.94;6323514;28;20052;-79
2021/10/23 10:38:53;;;;;;;5.40;0.75;;;;;;;9.28;99.03;102422.41;6316426;28;20052;-80
2021/10/23 10:42:50;;;;;;;1.67;0.35;;;;;;;9.24;99.27;102431.25;6329557;28;20137;-79
2021/10/23 10:45:56;;;;;;;0.32;0.20;;;;;;;9.23;99.44;102432.16;6225404;28;20050;-80
2021/10/23 10:48:57;;;;;;;1.98;0.50;;;;;;;9.39;97.54;102421.28;6226908;28;20061;-79
2021/10/23 10:51:58;;;;;;;1.98;0.35;;;;;;;9.35;98.89;102434.47;6312013;28;20056;-79
2021/10/23 10:55:10;;;;;;;3.95;0.75;;;;;;;9.42;97.64;102427.38;6302767;28;20068;-79
2021/10/23 10:58:12;;;;;;;2.90;1.58;;;;;;;9.44;97.24;102423.78;6303902;28;20055;-79
2021/10/23 11:01:18;;;;;;;1.00;0.47;;;;;;;9.77;96.05;102422.19;6304946;28;20044;-80
2021/10/23 11:04:20;;;;;;;1.58;0.98;;;;;;;9.79;96.12;102417.75;6314589;28;20188;-80
2021/10/23 11:07:21;;;;;;;3.05;1.63;;;;;;;9.83;96.87;102418.56;6306541;28;20059;-80
2021/10/23 11:10:56;;;;;;;1.17;0.32;;;;;;;10.07;94.01;102415.34;6305473;28;20044;-80
2021/10/23 11:14:02;;;;;;;2.03;0.52;;;;;;;10.24;91.42;102414.97;6303494;28;20049;-80
2021/10/23 11:17:19;;;;;;;0.80;0.40;;;;;;;10.05;90.88;102421.53;6303542;28;20530;-76
2021/10/23 11:20:21;;;;;;;0.63;0.35;;;;;;;10.01;92.02;102419.88;6304324;28;20044;-80
2021/10/23 11:23:23;;;;;;;3.00;0.50;;;;;;;9.82;93.69;102429.97;6299072;28;20052;-81
2021/10/23 11:26:25;;;;;;;3.03;0.77;;;;;;;9.80;96.76;102432.59;6306579;28;20044;-79
2021/10/23 11:29:28;;;;;;;1.10;0.40;;;;;;;9.83;94.03;102431.69;6310568;28;20055;-79
2021/10/23 11:32:31;;;;;;;1.77;0.40;;;;;;;9.79;95.86;102433.50;6322053;28;20048;-78
2021/10/23 11:35:35;;;;;;;1.52;0.40;;;;;;;9.93;93.47;102434.97;6295190;28;20049;-79
2021/10/23 11:38:36;;;;;;;0.63;0.30;;;;;;;10.15;90.62;102423.91;6299763;28;20499;-79
2021/10/23 11:41:37;;;;;;;8.63;0.68;;;;;;;10.39;88.69;102424.22;6299477;28;20052;-80
2021/10/23 11:44:39;;;;;;;0.60;0.30;;;;;;;10.51;86.68;102429.16;6280456;28;20053;-81
2021/10/23 11:47:41;;;;;;;1.05;0.52;;;;;;;10.71;86.77;102438.28;6274801;28;20057;-79
2021/10/23 11:50:44;;;;;;;1.27;0.50;;;;;;;10.72;86.43;102422.47;6275158;28;20053;-81
2021/10/23 11:53:46;;;;;;;3.08;1.08;;;;;;;10.75;86.32;102426.78;6273846;28;20647;-80
2021/10/23 11:56:48;;;;;;;0.68;0.40;;;;;;;10.64;85.75;102427.94;6275079;28;20060;-81
2021/10/23 11:59:50;;;;;;;2.90;0.57;;;;;;;10.71;85.97;102431.25;6278039;28;20040;-80
2021/10/23 12:02:58;;;;;;;3.75;0.77;;;;;;;10.61;88.44;102435.03;6299504;28;20497;-81
2021/10/23 12:05:59;;;;;;;4.10;1.13;;;;;;;10.70;87.81;102434.78;6298217;28;20532;-81
2021/10/23 12:09:15;;;;;;;1.88;0.60;;;;;;;10.65;89.13;102450.69;6299287;28;20049;-81
2021/10/23 12:12:22;;;;;;;2.15;0.55;;;;;;;10.76;87.82;102450.41;6299229;28;20044;-81
2021/10/23 12:15:25;;;;;;;1.17;0.60;;;;;;;10.77;89.08;102443.41;6299859;28;20056;-81
2021/10/23 12:18:28;;;;;;;1.65;0.30;;;;;;;10.76;87.47;102437.25;6298369;28;20131;-81
2021/10/23 12:21:36;;;;;;;1.48;0.50;;;;;;;10.91;87.31;102449.16;6298627;28;20133;-79
2021/10/23 12:24:39;;;;;;;1.98;0.60;;;;;;;11.09;81.71;102445.13;6297874;28;20063;-77
2021/10/23 12:27:42;;;;;;;1.67;0.50;;;;;;;11.29;81.63;102447.19;6298297;28;20055;-80
2021/10/23 12:30:43;;;;;;;2.47;0.50;;;;;;;11.28;81.38;102445.47;6298824;28;20051;-79
2021/10/23 12:34:06;;;;;;;0.22;0.20;;;;;;;11.27;81.76;102444.63;6298399;28;20431;-79
2021/10/23 12:37:07;;;;;;;1.42;0.73;;;;;;;11.57;81.21;102447.22;6298577;28;20059;-80
2021/10/23 12:40:13;;;;;;;1.77;0.40;;;;;;;11.48;81.18;102439.59;6298997;28;20044;-80
2021/10/23 12:43:18;;;;;;;0.65;0.40;;;;;;;11.56;79.45;102443.75;6299076;28;20052;-79
2021/10/23 12:46:20;;;;;;;0.85;0.40;;;;;;;11.59;79.57;102453.31;6299026;28;20142;-83
2021/10/23 12:49:24;;;;;;;3.47;0.52;;;;;;;11.52;77.00;102454.41;6298436;28;20048;-78
2021/10/23 12:52:25;;;;;;;0.60;0.50;;;;;;;11.25;77.20;102449.03;6297141;28;20048;-79
2021/10/23 12:55:27;;;;;;;1.40;0.40;;;;;;;11.20;77.91;102450.94;6296812;28;20416;-78
2021/10/23 12:58:28;;;;;;;2.08;0.32;;;;;;;11.25;79.86;102453.44;6297057;28;20048;-78
2021/10/23 13:01:30;;;;;;;2.33;0.35;;;;;;;11.25;78.92;102446.41;6297704;28;20041;-79
2021/10/23 13:04:33;;;;;;;1.48;0.43;;;;;;;11.42;77.23;102451.19;6296292;28;20499;-78
2021/10/23 13:07:34;;;;;;;2.53;1.42;;;;;;;11.49;78.10;102450.13;6274550;28;20049;-78
2021/10/23 13:10:36;;;;;;;0.77;0.45;;;;;;;11.53;78.56;102443.81;6271639;28;20048;-78
2021/10/23 13:13:39;;;;;;;0.98;0.50;;;;;;;11.66;78.72;102441.69;6271508;28;20048;-79
2021/10/23 13:16:42;;;;;;;1.50;0.60;;;;;;;11.71;76.62;102442.41;6272192;28;20059;-74
2021/10/23 13:19:45;;;;;;;1.30;0.40;;;;;;;11.78;75.44;102448.34;6271190;28;20408;-78
2021/10/23 13:22:46;;;;;;;0.22;0.22;;;;;;;11.69;73.16;102436.34;6273652;28;20443;-85
2021/10/23 13:25:48;;;;;;;1.40;0.35;;;;;;;11.81;73.68;102437.69;6271888;28;20645;-81
2021/10/23 13:28:49;;;;;;;4.50;0.47;;;;;;;11.51;76.29;102447.44;6271988;28;20044;-82
2021/10/23 13:31:51;;;;;;;0.30;0.30;;;;;;;11.44;77.00;102444.09;6271576;28;20053;-80
2021/10/23 13:34:55;;;;;;;4.00;0.63;;;;;;;11.35;76.87;102439.09;6282246;28;20517;-81
2021/10/23 13:37:56;;;;;;;0.90;0.50;;;;;;;11.30;76.81;102452.41;6295395;28;20048;-80
2021/10/23 13:40:58;;;;;;;1.30;0.57;;;;;;;11.16;77.78;102442.28;6296676;28;20442;-78
2021/10/23 13:43:59;;;;;;;1.48;0.52;;;;;;;11.00;79.50;102451.53;6296204;28;20052;-81
2021/10/23 13:47:01;;;;;;;1.30;0.93;;;;;;;10.86;81.55;102451.91;6296813;28;20514;-82
2021/10/23 13:50:04;;;;;;;2.28;0.50;;;;;;;10.84;79.70;102456.31;6296552;28;20110;-83
2021/10/23 13:53:06;;;;;;;3.88;0.50;;;;;;;10.80;80.44;102449.41;6296538;28;20067;-80
2021/10/23 13:56:07;;;;;;;6.35;0.47;;;;;;;10.75;80.36;102451.31;6295951;28;20060;-79
2021/10/23 13:59:08;;;;;;;3.97;1.35;;;;;;;10.71;82.39;102460.19;6296427;28;20056;-77
2021/10/23 14:02:10;;;;;;;3.33;0.88;;;;;;;10.62;82.77;102457.78;6296271;28;20389;-80
2021/10/23 14:05:12;;;;;;;1.58;0.43;;;;;;;10.57;85.21;102463.16;6295886;28;20057;-80
2021/10/23 14:08:15;;;;;;;2.13;0.35;;;;;;;10.56;85.36;102464.06;6294230;28;20515;-79
2021/10/23 14:11:16;;;;;;;7.93;0.82;;;;;;;10.63;84.16;102460.41;6296191;28;20563;-78
2021/10/23 14:14:17;;;;;;;1.85;1.10;;;;;;;10.56;84.42;102464.06;6297131;28;20492;-79
2021/10/23 14:17:19;;;;;;;1.13;0.75;;;;;;;10.45;85.22;102473.16;6299071;28;20044;-80